Time;durP1;ratioP1;P1;durP2;ratioP2;P2;SDS_P1;SDS_P2;PMS_P1;PMS_P2;Temp;Humidity;BMP_temperature;BMP_pressure;BME280_temperature;BME280_humidity;BME280_pressure;Samples;Min_cycle;Max_cycle;Signal;HPM_P1;HPM_P2
2021/06/27 00:00:26;;;;;;;5.55;4.10;;;615.10;1587.20;;;;;;5115741;28;20024;-72
2021/06/27 00:02:52;;;;;;;4.82;4.10;;;615.10;1587.20;;;;;;5115883;28;20028;-71
2021/06/27 00:05:20;;;;;;;5.88;4.55;;;615.10;1587.20;;;;;;5115771;28;20491;-71
2021/06/27 00:07:47;;;;;;;6.00;4.47;;;615.10;1587.20;;;;;;5115795;28;20527;-72
2021/06/27 00:10:28;;;;;;;12.52;4.72;;;615.10;1561.60;;;;;;5115699;28;20023;-72
2021/06/27 00:12:55;;;;;;;8.30;3.95;;;615.10;1561.60;;;;;;5115747;28;20427;-72
2021/06/27 00:15:27;;;;;;;5.65;4.40;;;615.10;1561.60;;;;;;5115545;28;20027;-72
2021/06/27 00:17:54;;;;;;;4.80;3.92;;;615.10;1561.60;;;;;;5114860;28;20031;-71
2021/06/27 00:20:24;;;;;;;5.72;4.25;;;615.10;1561.60;;;;;;5115820;28;20020;-71
2021/06/27 00:22:51;;;;;;;7.00;4.10;;;615.10;1561.60;;;;;;5115781;28;20020;-72
2021/06/27 00:25:18;;;;;;;5.57;4.15;;;615.00;1561.60;;;;;;5097123;28;20063;-72
2021/06/27 00:27:48;;;;;;;7.35;4.32;;;615.00;1587.20;;;;;;5115390;28;20024;-71
2021/06/27 00:30:16;;;;;;;7.38;5.13;;;615.00;1587.20;;;;;;5115327;28;20110;-72
2021/06/27 00:32:42;;;;;;;4.78;4.13;;;615.00;1561.60;;;;;;5115027;28;20036;-72
2021/06/27 00:35:10;;;;;;;6.25;4.57;;;615.00;1561.60;;;;;;5115149;28;20035;-72
2021/06/27 00:37:36;;;;;;;6.65;4.93;;;614.90;1561.60;;;;;;5115331;28;20020;-71
2021/06/27 00:40:06;;;;;;;5.53;4.68;;;614.90;1561.60;;;;;;5115468;28;20027;-75
2021/06/27 00:42:32;;;;;;;5.68;4.65;;;614.90;1561.60;;;;;;5096755;28;20410;-72
2021/06/27 00:44:59;;;;;;;5.50;4.97;;;614.90;1587.20;;;;;;5115067;28;20023;-71
2021/06/27 00:47:30;;;;;;;4.88;3.97;;;614.90;1561.60;;;;;;5114913;28;20114;-71
2021/06/27 00:49:56;;;;;;;5.15;4.32;;;614.80;1561.60;;;;;;5115139;28;20030;-72
2021/06/27 00:52:23;;;;;;;6.55;4.35;;;614.80;1561.60;;;;;;5114845;28;20543;-71
2021/06/27 00:54:48;;;;;;;4.57;4.13;;;614.80;1561.60;;;;;;5114501;28;20019;-71
2021/06/27 00:57:14;;;;;;;8.27;4.80;;;614.80;1561.60;;;;;;5114593;28;20122;-71
2021/06/27 00:59:40;;;;;;;7.40;4.70;;;614.80;1561.60;;;;;;5114594;28;20011;-71
2021/06/27 01:02:06;;;;;;;5.78;4.70;;;614.80;1561.60;;;;;;5114653;28;20024;-71
2021/06/27 01:04:32;;;;;;;5.93;4.80;;;614.90;1536.00;;;;;;5114503;28;20031;-71
2021/06/27 01:06:58;;;;;;;5.32;4.50;;;614.80;1561.60;;;;;;5096340;28;20031;-71
2021/06/27 01:09:24;;;;;;;4.90;4.40;;;614.80;1561.60;;;;;;5114500;28;20157;-71
2021/06/27 01:11:50;;;;;;;7.07;4.70;;;614.80;1561.60;;;;;;5114491;28;20527;-71
2021/06/27 01:14:16;;;;;;;5.47;4.82;;;614.70;1561.60;;;;;;5114754;28;20023;-72
2021/06/27 01:16:42;;;;;;;8.32;5.18;;;614.80;1561.60;;;;;;5114338;28;20110;-71
2021/06/27 01:19:08;;;;;;;6.05;4.95;;;614.80;1561.60;;;;;;5096265;28;20468;-71
2021/06/27 01:21:36;;;;;;;8.20;5.15;;;614.80;1561.60;;;;;;5114607;28;20027;-72
2021/06/27 01:24:03;;;;;;;10.50;4.95;;;614.70;1561.60;;;;;;5114312;28;20098;-71
2021/06/27 01:26:29;;;;;;;5.07;4.47;;;614.70;1561.60;;;;;;5114580;28;20027;-71
2021/06/27 01:28:58;;;;;;;9.27;5.65;;;614.70;1561.60;;;;;;5095062;28;20023;-71
2021/06/27 01:31:27;;;;;;;9.30;5.13;;;614.70;1561.60;;;;;;5114174;28;20058;-71
2021/06/27 01:33:56;;;;;;;6.43;5.03;;;614.60;1587.20;;;;;;5114013;28;20416;-71
2021/06/27 01:36:23;;;;;;;7.28;4.88;;;614.60;1587.20;;;;;;5114051;28;20413;-72
2021/06/27 01:38:50;;;;;;;8.50;5.45;;;614.60;1587.20;;;;;;5114096;28;20124;-71
2021/06/27 01:41:18;;;;;;;7.90;4.70;;;614.50;1587.20;;;;;;5114065;28;20122;-71
2021/06/27 01:43:44;;;;;;;8.00;4.82;;;614.50;1587.20;;;;;;5113986;28;20028;-71
2021/06/27 01:46:10;;;;;;;6.72;5.22;;;614.50;1587.20;;;;;;5113972;28;20051;-72
2021/06/27 01:48:38;;;;;;;5.88;5.28;;;614.50;1587.20;;;;;;5114014;28;20023;-72
2021/06/27 01:51:09;;;;;;;5.95;4.82;;;614.40;1587.20;;;;;;5113982;28;20110;-71
2021/06/27 01:53:37;;;;;;;8.73;5.25;;;614.40;1612.80;;;;;;5114216;28;20099;-72
2021/06/27 01:56:05;;;;;;;7.72;4.88;;;614.40;1587.20;;;;;;5113859;28;20495;-72
2021/06/27 01:58:51;;;;;;;5.85;4.85;;;614.40;1587.20;;;;;;5113895;28;20019;-72
2021/06/27 02:01:25;;;;;;;7.85;5.10;;;589.70;1587.20;;;;;;5113884;28;20052;-72
2021/06/27 02:03:51;;;;;;;5.63;5.13;;;614.40;1587.20;;;;;;5109743;28;20031;-71
2021/06/27 02:06:22;;;;;;;6.18;5.40;;;614.40;1587.20;;;;;;5113475;28;20389;-72
2021/06/27 02:08:49;;;;;;;8.40;5.30;;;614.40;1587.20;;;;;;5113532;28;20019;-72
2021/06/27 02:11:17;;;;;;;8.25;4.93;;;614.40;1587.20;;;;;;5094986;28;20027;-71
2021/06/27 02:13:44;;;;;;;9.15;5.68;;;589.70;1587.20;;;;;;5113465;28;20019;-72
2021/06/27 02:16:10;;;;;;;7.28;5.38;;;589.70;1587.20;;;;;;5113582;28;20039;-71
2021/06/27 02:18:40;;;;;;;6.30;5.25;;;589.70;1587.20;;;;;;5113709;28;20102;-72
2021/06/27 02:21:09;;;;;;;7.80;5.50;;;589.70;1587.20;;;;;;5113828;28;20352;-71
2021/06/27 02:23:36;;;;;;;5.70;4.78;;;589.70;1587.20;;;;;;5113779;28;20020;-71
2021/06/27 02:26:02;;;;;;;7.05;5.03;;;589.70;1587.20;;;;;;5113728;28;20414;-72
2021/06/27 02:28:31;;;;;;;8.68;5.10;;;589.70;1587.20;;;;;;5113708;28;20020;-72
2021/06/27 02:30:58;;;;;;;14.75;5.50;;;589.60;1587.20;;;;;;5113685;28;20023;-71
2021/06/27 02:33:24;;;;;;;8.10;5.53;;;589.70;1587.20;;;;;;5113520;28;20090;-72
2021/06/27 02:35:50;;;;;;;7.78;5.50;;;589.70;1587.20;;;;;;5113536;28;20031;-71
2021/06/27 02:38:17;;;;;;;7.82;6.07;;;589.60;1612.80;;;;;;5113626;28;20428;-71
2021/06/27 02:40:44;;;;;;;8.05;7.00;;;589.60;1638.40;;;;;;5115438;28;20480;-71
2021/06/27 02:43:11;;;;;;;11.75;6.38;;;589.60;1664.00;;;;;;5117599;28;20031;-72
2021/06/27 02:45:38;;;;;;;10.68;6.43;;;589.50;1664.00;;;;;;5117877;28;20024;-71
2021/06/27 02:48:05;;;;;;;7.90;5.70;;;589.50;1664.00;;;;;;5117530;28;20480;-71
2021/06/27 02:50:32;;;;;;;7.15;5.13;;;589.50;1664.00;;;;;;5099442;28;20530;-71
2021/06/27 02:52:57;;;;;;;7.90;5.43;;;589.40;1638.40;;;;;;5117454;28;20506;-71
2021/06/27 02:55:23;;;;;;;6.05;5.45;;;589.40;1664.00;;;;;;5117297;28;20027;-71
2021/06/27 02:57:51;;;;;;;10.10;5.93;;;589.40;1638.40;;;;;;5098999;28;20031;-72
2021/06/27 03:00:19;;;;;;;8.30;6.00;;;589.30;1664.00;;;;;;5117579;28;20080;-71
2021/06/27 03:02:45;;;;;;;7.40;5.97;;;589.30;1664.00;;;;;;5117428;28;20407;-71
2021/06/27 03:05:13;;;;;;;14.10;6.60;;;589.30;1664.00;;;;;;5117464;28;20046;-71
2021/06/27 03:07:40;;;;;;;14.18;6.93;;;589.30;1664.00;;;;;;5117095;28;20146;-71
2021/06/27 03:10:11;;;;;;;8.07;5.70;;;589.20;1664.00;;;;;;5117363;28;20019;-71
2021/06/27 03:12:38;;;;;;;8.57;5.28;;;589.20;1689.60;;;;;;5117292;28;20032;-71
2021/06/27 03:15:07;;;;;;;8.82;5.93;;;589.20;1664.00;;;;;;5116740;28;20016;-71
2021/06/27 03:17:32;;;;;;;8.38;6.22;;;589.20;1638.40;;;;;;5117215;28;20038;-71
2021/06/27 03:19:59;;;;;;;11.52;5.88;;;589.20;1638.40;;;;;;5116829;28;20098;-71
2021/06/27 03:22:24;;;;;;;11.18;6.22;;;589.20;1638.40;;;;;;5116728;28;20475;-71
2021/06/27 03:24:50;;;;;;;8.07;6.10;;;589.20;1638.40;;;;;;5117002;28;20111;-71
2021/06/27 03:27:17;;;;;;;8.50;6.20;;;589.30;1638.40;;;;;;5116636;28;20020;-72
2021/06/27 03:29:43;;;;;;;18.10;6.07;;;589.20;1638.40;;;;;;5098387;28;20101;-71
2021/06/27 03:32:09;;;;;;;9.77;6.28;;;589.20;1638.40;;;;;;5116542;28;20049;-71
2021/06/27 03:34:35;;;;;;;14.43;5.85;;;589.10;1638.40;;;;;;5116836;28;20031;-72
2021/06/27 03:37:00;;;;;;;14.50;6.20;;;589.10;1664.00;;;;;;5098027;28;20042;-71
2021/06/27 03:39:26;;;;;;;29.30;7.13;;;589.10;1664.00;;;;;;5116475;28;20106;-71
2021/06/27 03:41:53;;;;;;;15.35;6.35;;;589.00;1664.00;;;;;;5097922;28;20027;-72
2021/06/27 03:44:20;;;;;;;8.85;6.03;;;589.00;1664.00;;;;;;5116443;28;20081;-72
2021/06/27 03:46:46;;;;;;;6.70;5.72;;;588.90;1664.00;;;;;;5097755;28;20081;-72
2021/06/27 03:49:13;;;;;;;9.32;5.80;;;588.90;1664.00;;;;;;5116031;28;20027;-72
2021/06/27 03:51:39;;;;;;;8.02;6.10;;;589.00;1638.40;;;;;;5115017;28;20499;-72
2021/06/27 03:54:06;;;;;;;12.70;5.47;;;589.00;1638.40;;;;;;5116181;28;20032;-72
2021/06/27 03:56:32;;;;;;;6.63;5.55;;;589.10;1638.40;;;;;;5115807;28;20032;-72
2021/06/27 03:58:58;;;;;;;8.88;5.53;;;589.10;1638.40;;;;;;5116049;28;20023;-71
2021/06/27 04:01:24;;;;;;;8.80;5.90;;;589.20;1638.40;;;;;;5116192;28;20093;-71
2021/06/27 04:03:50;;;;;;;20.35;6.80;;;589.20;1638.40;;;;;;5116128;28;20024;-71
2021/06/27 04:06:16;;;;;;;13.23;6.10;;;589.20;1638.40;;;;;;5114599;28;20020;-71
2021/06/27 04:08:42;;;;;;;11.32;6.60;;;589.30;1638.40;;;;;;5114568;28;20639;-71
2021/06/27 04:11:08;;;;;;;19.13;6.70;;;589.30;1638.40;;;;;;5115157;28;20036;-72
2021/06/27 04:13:35;;;;;;;11.25;7.03;;;589.30;1638.40;;;;;;5115059;28;20023;-71
2021/06/27 04:16:03;;;;;;;28.40;7.13;;;589.30;1664.00;;;;;;5115015;28;20110;-72
2021/06/27 04:18:29;;;;;;;37.33;8.35;;;589.30;1664.00;;;;;;5115097;28;20053;-74
2021/06/27 04:20:56;;;;;;;37.63;9.45;;;589.40;1638.40;;;;;;5097040;28;20049;-71
2021/06/27 04:23:23;;;;;;;19.58;7.40;;;589.50;1638.40;;;;;;5115498;28;20518;-72
2021/06/27 04:25:49;;;;;;;16.88;7.65;;;589.50;1638.40;;;;;;5115425;28;20024;-71
2021/06/27 04:28:15;;;;;;;17.77;7.90;;;589.60;1638.40;;;;;;5115471;28;20020;-71
2021/06/27 04:30:43;;;;;;;16.98;7.60;;;589.60;1612.80;;;;;;5115359;28;20016;-71
2021/06/27 04:33:10;;;;;;;13.68;6.72;;;589.70;1612.80;;;;;;5096833;28;20047;-70
2021/06/27 04:35:38;;;;;;;9.35;7.38;;;589.70;1638.40;;;;;;5115436;28;20035;-71
2021/06/27 04:38:09;;;;;;;9.93;7.20;;;614.40;1638.40;;;;;;5115227;28;20024;-71
2021/06/27 04:40:36;;;;;;;12.27;7.75;;;614.40;1612.80;;;;;;5115478;28;20020;-72
2021/06/27 04:43:02;;;;;;;45.90;8.50;;;614.50;1612.80;;;;;;5115273;28;20019;-72
2021/06/27 04:45:28;;;;;;;16.35;7.97;;;614.50;1612.80;;;;;;5096964;28;20028;-72
2021/06/27 04:47:54;;;;;;;22.92;8.40;;;614.50;1612.80;;;;;;5115216;28;20068;-72
2021/06/27 04:50:20;;;;;;;96.53;11.38;;;614.60;1612.80;;;;;;5115082;28;20431;-72
2021/06/27 04:52:52;;;;;;;47.00;9.40;;;614.60;1612.80;;;;;;5114535;28;20027;-71
2021/06/27 04:55:21;;;;;;;23.83;8.02;;;614.60;1612.80;;;;;;5114811;28;20444;-72
2021/06/27 04:57:48;;;;;;;31.83;7.63;;;614.60;1612.80;;;;;;5114771;28;20024;-72
2021/06/27 05:00:14;;;;;;;17.63;8.25;;;614.60;1612.80;;;;;;5114820;28;20357;-72
2021/06/27 05:02:40;;;;;;;16.30;7.82;;;614.70;1612.80;;;;;;5114403;28;20045;-72
2021/06/27 05:05:08;;;;;;;15.02;7.70;;;614.70;1612.80;;;;;;5114557;28;20028;-72
2021/06/27 05:07:34;;;;;;;33.97;7.97;;;614.70;1638.40;;;;;;5079508;28;20019;-72
2021/06/27 05:10:00;;;;;;;27.00;7.93;;;614.70;1638.40;;;;;;5114383;28;20076;-72
2021/06/27 05:12:27;;;;;;;32.45;7.82;;;614.70;1612.80;;;;;;5114370;28;20019;-72
2021/06/27 05:14:53;;;;;;;23.15;7.63;;;614.80;1612.80;;;;;;5114423;28;20028;-72
2021/06/27 05:17:20;;;;;;;32.17;7.85;;;614.70;1612.80;;;;;;5114324;28;20084;-72
2021/06/27 05:19:46;;;;;;;60.75;9.50;;;614.80;1638.40;;;;;;5114361;28;20062;-72
2021/06/27 05:22:12;;;;;;;66.72;10.10;;;614.80;1612.80;;;;;;5114380;28;20024;-72
2021/06/27 05:24:38;;;;;;;362.13;22.08;;;614.90;1638.40;;;;;;5114657;28;20531;-72
2021/06/27 05:27:05;;;;;;;215.50;15.77;;;614.80;1638.40;;;;;;5114444;28;20522;-72
2021/06/27 05:29:31;;;;;;;61.70;9.38;;;614.80;1638.40;;;;;;5114372;28;20024;-72
2021/06/27 05:31:57;;;;;;;53.88;9.10;;;614.80;1638.40;;;;;;5114227;28;20031;-72
2021/06/27 05:34:23;;;;;;;15.00;7.32;;;614.80;1638.40;;;;;;5114513;28;20452;-72
2021/06/27 05:36:49;;;;;;;21.55;8.00;;;614.80;1638.40;;;;;;5114375;28;20035;-72
2021/06/27 05:39:15;;;;;;;37.53;8.32;;;614.80;1638.40;;;;;;5114058;28;20097;-72
2021/06/27 05:41:42;;;;;;;34.40;8.43;;;614.80;1612.80;;;;;;5114041;28;20035;-73
2021/06/27 05:44:08;;;;;;;45.75;9.38;;;614.90;1612.80;;;;;;5113894;28;20032;-72
2021/06/27 05:46:34;;;;;;;43.97;10.73;;;614.90;1612.80;;;;;;5113957;28;20093;-72
2021/06/27 05:49:05;;;;;;;10.88;7.47;;;615.00;1638.40;;;;;;5114210;28;20031;-72
2021/06/27 05:51:31;;;;;;;13.27;7.90;;;615.00;1612.80;;;;;;5114252;28;20111;-73
2021/06/27 05:53:57;;;;;;;13.02;6.63;;;615.00;1612.80;;;;;;5113945;28;20022;-72
2021/06/27 05:56:22;;;;;;;17.23;8.18;;;615.00;1612.80;;;;;;5113745;28;20027;-72
2021/06/27 05:58:48;;;;;;;9.60;7.05;;;615.00;1612.80;;;;;;5113809;28;20062;-73
2021/06/27 06:01:16;;;;;;;10.82;6.97;;;615.00;1638.40;;;;;;5113780;28;20388;-72
2021/06/27 06:03:43;;;;;;;25.60;8.15;;;615.10;1612.80;;;;;;5113761;28;20403;-71
2021/06/27 06:06:10;;;;;;;35.08;7.90;;;615.00;1664.00;;;;;;5113383;28;20080;-72
2021/06/27 06:08:40;;;;;;;17.80;7.18;;;615.20;1638.40;;;;;;5113341;28;20019;-72
2021/06/27 06:11:10;;;;;;;35.72;7.88;;;615.20;1612.80;;;;;;5113726;28;20472;-72
2021/06/27 06:13:37;;;;;;;8.85;6.60;;;615.30;1638.40;;;;;;5113286;28;20383;-72
2021/06/27 06:16:06;;;;;;;25.88;7.85;;;615.30;1612.80;;;;;;5115830;28;20114;-72
2021/06/27 06:18:34;;;;;;;11.38;7.25;;;640.00;1638.40;;;;;;5118009;28;20016;-73
2021/06/27 06:21:00;;;;;;;9.82;7.40;;;640.00;1638.40;;;;;;5117748;28;20053;-72
2021/06/27 06:23:27;;;;;;;9.48;7.05;;;640.10;1638.40;;;;;;5117879;28;20020;-72
2021/06/27 06:25:53;;;;;;;38.97;8.48;;;640.10;1638.40;;;;;;5118133;28;20020;-72
2021/06/27 06:28:20;;;;;;;17.05;6.57;;;640.30;1638.40;;;;;;5117899;28;20031;-73
2021/06/27 06:30:46;;;;;;;168.88;13.70;;;640.40;1587.20;;;;;;5118144;28;20024;-72
2021/06/27 06:33:12;;;;;;;172.63;14.43;;;640.60;1587.20;;;;;;5117447;28;20047;-72
2021/06/27 06:35:39;;;;;;;16.30;6.30;;;640.70;1561.60;;;;;;5117506;28;20035;-73
2021/06/27 06:38:06;;;;;;;25.98;7.47;;;640.80;1587.20;;;;;;5117390;28;20037;-72
2021/06/27 06:40:32;;;;;;;19.63;6.15;;;665.60;1587.20;;;;;;5117333;28;20024;-72
2021/06/27 06:42:59;;;;;;;107.30;9.90;;;665.60;1587.20;;;;;;5117333;28;20030;-73
2021/06/27 06:45:25;;;;;;;21.88;6.47;;;665.80;1561.60;;;;;;5117343;28;20023;-73
2021/06/27 06:47:51;;;;;;;89.20;10.23;;;666.00;1561.60;;;;;;5117048;28;20095;-73
2021/06/27 06:50:17;;;;;;;217.00;16.05;;;666.10;1536.00;;;;;;5117079;28;20019;-73
2021/06/27 06:52:43;;;;;;;82.72;9.65;;;666.20;1510.40;;;;;;5117029;28;20103;-72
2021/06/27 06:55:10;;;;;;;154.75;12.43;;;666.30;1536.00;;;;;;5117122;28;20379;-72
2021/06/27 06:57:36;;;;;;;164.68;12.98;;;666.30;1510.40;;;;;;5117536;28;20053;-72
2021/06/27 07:00:03;;;;;;;114.53;10.27;;;666.30;1510.40;;;;;;5117481;28;20016;-73
2021/06/27 07:02:29;;;;;;;41.17;6.88;;;666.30;1536.00;;;;;;5117020;28;20034;-72
2021/06/27 07:04:55;;;;;;;14.38;4.68;;;666.40;1536.00;;;;;;5117338;28;20024;-72
2021/06/27 07:07:21;;;;;;;28.30;5.90;;;691.20;1484.80;;;;;;5116957;28;20495;-72
2021/06/27 07:09:47;;;;;;;22.13;5.32;;;691.30;1484.80;;;;;;5116873;28;20046;-71
2021/06/27 07:12:13;;;;;;;31.48;5.15;;;691.60;1459.20;;;;;;5116562;28;20038;-73
2021/06/27 07:14:39;;;;;;;6.40;4.68;;;691.40;1433.60;;;;;;5098234;28;20430;-71
2021/06/27 07:17:04;;;;;;;18.30;5.47;;;691.60;1433.60;;;;;;5116720;28;20031;-73
2021/06/27 07:19:30;;;;;;;5.38;4.28;;;691.70;1433.60;;;;;;5116783;28;20043;-72
2021/06/27 07:21:56;;;;;;;9.27;4.03;;;691.70;1433.60;;;;;;5116729;28;20024;-72
2021/06/27 07:24:22;;;;;;;11.85;4.75;;;691.80;1433.60;;;;;;5116873;28;20523;-71
2021/06/27 07:26:48;;;;;;;31.92;6.03;;;692.00;1433.60;;;;;;5116551;28;20115;-72
2021/06/27 07:29:14;;;;;;;9.27;4.35;;;717.00;1459.20;;;;;;5116563;28;20537;-71
2021/06/27 07:31:40;;;;;;;34.25;6.45;;;716.80;1433.60;;;;;;5116288;28;20027;-72
2021/06/27 07:34:06;;;;;;;6.05;4.35;;;716.80;1433.60;;;;;;5116788;28;20028;-72
2021/06/27 07:36:32;;;;;;;56.05;6.90;;;716.90;1408.00;;;;;;5116654;28;20076;-73
2021/06/27 07:38:58;;;;;;;8.27;4.00;;;716.90;1433.60;;;;;;5116409;28;20020;-73
2021/06/27 07:41:24;;;;;;;8.30;4.05;;;717.00;1433.60;;;;;;5116358;28;20020;-72
2021/06/27 07:43:50;;;;;;;31.13;5.35;;;717.10;1382.40;;;;;;5116589;28;20032;-72
2021/06/27 07:46:17;;;;;;;70.38;7.82;;;717.00;1382.40;;;;;;5116361;28;20055;-72
2021/06/27 07:48:43;;;;;;;104.00;11.48;;;717.00;1382.40;;;;;;5116609;28;20110;-72
2021/06/27 07:51:10;;;;;;;5.18;3.22;;;717.10;1408.00;;;;;;5116237;28;20023;-71
2021/06/27 07:53:36;;;;;;;29.00;5.97;;;717.20;1382.40;;;;;;5116207;28;20031;-72
2021/06/27 07:56:03;;;;;;;30.13;6.15;;;717.20;1356.80;;;;;;5116129;28;20493;-71
2021/06/27 07:58:29;;;;;;;85.03;9.32;;;717.20;1356.80;;;;;;5116348;28;20027;-71
2021/06/27 08:00:55;;;;;;;92.03;8.55;;;717.20;1382.40;;;;;;5116094;28;20383;-71
2021/06/27 08:03:21;;;;;;;12.73;3.83;;;717.30;1408.00;;;;;;5116249;28;20024;-73
2021/06/27 08:05:47;;;;;;;118.70;10.13;;;717.30;1331.20;;;;;;5115541;28;20028;-72
2021/06/27 08:08:14;;;;;;;65.30;6.97;;;717.30;1356.80;;;;;;5115364;28;20425;-72
2021/06/27 08:10:43;;;;;;;55.30;7.70;;;717.30;1356.80;;;;;;5115406;28;20073;-72
2021/06/27 08:13:10;;;;;;;55.17;6.80;;;717.30;1356.80;;;;;;5115269;28;20016;-73
2021/06/27 08:15:36;;;;;;;36.63;5.70;;;717.40;1356.80;;;;;;5114762;28;20115;-73
2021/06/27 08:18:02;;;;;;;54.45;7.30;;;717.50;1356.80;;;;;;5113902;28;20107;-73
2021/06/27 08:20:28;;;;;;;31.60;5.68;;;717.50;1356.80;;;;;;5112112;28;20487;-73
2021/06/27 08:22:55;;;;;;;32.70;6.25;;;717.50;1305.60;;;;;;5112751;28;20016;-74
2021/06/27 08:25:21;;;;;;;23.45;7.63;;;717.50;1356.80;;;;;;5113594;28;20375;-74
2021/06/27 08:27:47;;;;;;;23.65;8.68;;;717.50;1331.20;;;;;;5115034;28;20035;-73
2021/06/27 08:30:15;;;;;;;13.80;5.18;;;717.60;1305.60;;;;;;5115426;28;20099;-74
2021/06/27 08:32:43;;;;;;;556.95;29.63;;;717.60;1280.00;;;;;;5114788;28;20048;-74
2021/06/27 08:35:14;;;;;;;25.50;6.05;;;717.60;1305.60;;;;;;5112629;28;20387;-75
2021/06/27 08:37:41;;;;;;;34.22;6.65;;;717.60;1305.60;;;;;;5114792;28;20063;-73
2021/06/27 08:40:09;;;;;;;7.82;3.78;;;717.60;1305.60;;;;;;5115244;28;20468;-73
2021/06/27 08:42:35;;;;;;;21.77;5.70;;;717.60;1280.00;;;;;;5115182;28;20032;-73
2021/06/27 08:45:01;;;;;;;16.92;4.55;;;717.70;1305.60;;;;;;5115259;28;20034;-73
2021/06/27 08:47:29;;;;;;;19.33;5.18;;;742.40;1305.60;;;;;;5096855;28;20073;-72
2021/06/27 08:49:55;;;;;;;5.18;2.80;;;742.50;1305.60;;;;;;5115113;28;20043;-73
2021/06/27 08:52:22;;;;;;;13.07;4.53;;;742.40;1254.40;;;;;;5114672;28;20460;-74
2021/06/27 08:54:49;;;;;;;9.13;3.78;;;742.50;1280.00;;;;;;5114718;28;20509;-73
2021/06/27 08:57:17;;;;;;;5.80;2.65;;;742.60;1254.40;;;;;;5113595;28;20088;-73
2021/06/27 08:59:45;;;;;;;12.98;3.92;;;742.60;1254.40;;;;;;5112861;28;20015;-73
2021/06/27 09:02:11;;;;;;;15.93;4.22;;;742.60;1254.40;;;;;;5112727;28;20085;-73
2021/06/27 09:04:42;;;;;;;4.07;2.90;;;742.60;1280.00;;;;;;5096217;28;20020;-73
2021/06/27 09:07:38;;;;;;;18.08;4.03;;;742.60;1254.40;;;;;;5114452;28;20054;-73
2021/06/27 09:10:17;;;;;;;11.45;3.70;;;742.60;1228.80;;;;;;5114704;28;20038;-73
2021/06/27 09:12:47;;;;;;;7.45;2.78;;;742.60;1280.00;;;;;;5114341;28;20034;-76
2021/06/27 09:15:14;;;;;;;4.82;2.47;;;742.60;1280.00;;;;;;5114230;28;20098;-74
2021/06/27 09:17:42;;;;;;;19.77;4.20;;;742.60;1152.00;;;;;;5114418;28;20032;-77
2021/06/27 09:20:12;;;;;;;3.88;2.70;;;742.60;1228.80;;;;;;5114334;28;20030;-73
2021/06/27 09:22:50;;;;;;;9.82;3.28;;;742.70;1203.20;;;;;;5114176;28;20472;-73
2021/06/27 09:25:26;;;;;;;29.05;4.80;;;742.70;1203.20;;;;;;5113873;28;20036;-73
2021/06/27 09:28:07;;;;;;;36.60;5.00;;;742.70;1254.40;;;;;;5114044;28;20466;-73
2021/06/27 09:30:40;;;;;;;17.42;3.70;;;742.70;1254.40;;;;;;5113956;28;20028;-73
2021/06/27 09:33:11;;;;;;;16.75;6.03;;;742.70;1203.20;;;;;;5113837;28;20126;-73
2021/06/27 09:35:51;;;;;;;33.72;12.82;;;742.60;1203.20;;;;;;5114115;28;20477;-72
2021/06/27 09:38:25;;;;;;;22.27;8.02;;;742.60;1177.60;;;;;;5114171;28;20038;-72
2021/06/27 09:41:16;;;;;;;44.42;12.57;;;717.70;1152.00;;;;;;5114058;28;20024;-73
2021/06/27 09:43:49;;;;;;;13.90;6.40;;;742.60;1228.80;;;;;;5114185;28;20023;-73
2021/06/27 09:46:16;;;;;;;50.85;10.63;;;742.60;1203.20;;;;;;5113849;28;20092;-73
2021/06/27 09:48:57;;;;;;;43.65;9.18;;;742.60;1254.40;;;;;;5095717;28;20020;-73
2021/06/27 09:51:28;;;;;;;40.90;8.57;;;742.60;1280.00;;;;;;5113088;28;20031;-73
2021/06/27 09:53:55;;;;;;;74.25;11.05;;;742.60;1203.20;;;;;;5114180;28;20500;-73
2021/06/27 09:56:26;;;;;;;51.55;9.38;;;742.70;1152.00;;;;;;5113940;28;20028;-74
2021/06/27 09:58:57;;;;;;;40.17;7.03;;;742.70;1228.80;;;;;;5113745;28;20031;-74
2021/06/27 10:01:27;;;;;;;25.33;4.65;;;742.70;1254.40;;;;;;5113696;28;20042;-74
2021/06/27 10:03:56;;;;;;;7.68;4.10;;;742.70;1126.40;;;;;;5113810;28;20069;-73
2021/06/27 10:06:27;;;;;;;17.15;6.28;;;742.70;1152.00;;;;;;5113913;28;20038;-74
2021/06/27 10:08:54;;;;;;;29.52;7.28;;;742.70;1100.80;;;;;;5113705;28;20024;-73
2021/06/27 10:11:22;;;;;;;20.30;6.03;;;742.70;1177.60;;;;;;5112663;28;20460;-74
2021/06/27 10:13:53;;;;;;;21.45;5.75;;;742.80;1177.60;;;;;;5106466;28;20514;-73
2021/06/27 10:16:25;;;;;;;37.42;6.82;;;742.90;1152.00;;;;;;5112243;28;20115;-73
2021/06/27 10:18:51;;;;;;;24.00;4.93;;;742.90;1228.80;;;;;;5113424;28;20024;-74
2021/06/27 10:21:18;;;;;;;18.60;4.75;;;742.80;1152.00;;;;;;5113029;28;20081;-73
2021/06/27 10:23:45;;;;;;;18.63;3.75;;;742.80;1177.60;;;;;;5112910;28;20015;-74
2021/06/27 10:26:13;;;;;;;13.88;4.03;;;742.80;1177.60;;;;;;5113057;28;20526;-73
2021/06/27 10:28:41;;;;;;;20.10;3.70;;;742.90;1152.00;;;;;;5112093;28;20495;-73
2021/06/27 10:31:11;;;;;;;6.32;2.60;;;742.90;1177.60;;;;;;5093740;28;20031;-74
2021/06/27 10:33:39;;;;;;;9.60;3.38;;;743.00;1126.40;;;;;;5111830;28;20047;-72
2021/06/27 10:36:12;;;;;;;6.85;2.63;;;743.00;1152.00;;;;;;5112353;28;20028;-74
2021/06/27 10:38:47;;;;;;;3.50;2.03;;;743.00;1126.40;;;;;;5112296;28;20020;-77
2021/06/27 10:41:13;;;;;;;6.18;2.90;;;743.00;1100.80;;;;;;5108826;28;20035;-77
2021/06/27 10:44:01;;;;;;;16.25;2.78;;;743.10;1177.60;;;;;;5094504;28;20027;-76
2021/06/27 10:46:59;;;;;;;16.77;3.13;;;743.10;1152.00;;;;;;5113400;28;20031;-74
2021/06/27 10:49:31;;;;;;;22.45;3.60;;;743.10;1152.00;;;;;;5010437;28;20037;-74
2021/06/27 10:52:12;;;;;;;14.50;2.90;;;743.10;1177.60;;;;;;5011108;28;20126;-73
2021/06/27 10:54:42;;;;;;;7.63;3.00;;;743.10;1152.00;;;;;;5010648;28;20442;-74
2021/06/27 10:57:14;;;;;;;17.67;3.60;;;743.10;1152.00;;;;;;5010793;28;20088;-73
2021/06/27 10:59:40;;;;;;;19.70;3.53;;;743.10;1126.40;;;;;;5010688;28;20058;-73
2021/06/27 11:02:19;;;;;;;10.27;2.95;;;743.10;1126.40;;;;;;5012985;28;20473;-73
2021/06/27 11:04:51;;;;;;;9.52;2.50;;;743.20;1075.20;;;;;;5014084;28;20026;-73
2021/06/27 11:07:38;;;;;;;7.85;2.53;;;743.20;1126.40;;;;;;5013309;28;20618;-74
2021/06/27 11:10:22;;;;;;;4.78;2.22;;;743.10;1152.00;;;;;;5011306;28;20030;-73
2021/06/27 11:13:09;;;;;;;7.68;2.47;;;743.10;1100.80;;;;;;5013501;28;20041;-72
2021/06/27 11:15:45;;;;;;;5.35;2.17;;;743.10;1126.40;;;;;;5013384;28;20022;-72
2021/06/27 11:18:26;;;;;;;2.88;2.08;;;743.10;1075.20;;;;;;5013579;28;20046;-72
2021/06/27 11:20:52;;;;;;;4.78;2.13;;;743.10;1100.80;;;;;;5014277;28;20026;-73
2021/06/27 11:23:19;;;;;;;5.85;2.17;;;743.20;1126.40;;;;;;5013246;28;20087;-72
2021/06/27 11:25:48;;;;;;;49.55;3.72;;;743.20;1075.20;;;;;;5096720;28;20039;-73
2021/06/27 11:28:20;;;;;;;19.05;2.90;;;743.20;1075.20;;;;;;5115938;28;20484;-72
2021/06/27 11:30:47;;;;;;;13.70;3.08;;;743.20;1100.80;;;;;;5116524;28;20360;-72
2021/06/27 11:33:21;;;;;;;20.10;2.75;;;743.20;1126.40;;;;;;5115733;28;20051;-73
2021/06/27 11:35:49;;;;;;;11.27;2.75;;;743.20;1126.40;;;;;;5115807;28;20034;-73
2021/06/27 11:38:36;;;;;;;4.00;2.20;;;743.30;1126.40;;;;;;5115941;28;20023;-74
2021/06/27 11:41:08;;;;;;;11.30;2.78;;;743.20;1100.80;;;;;;5115995;28;20019;-73
2021/06/27 11:43:59;;;;;;;12.13;3.50;;;743.20;1126.40;;;;;;5115780;28;20023;-73
2021/06/27 11:46:47;;;;;;;2.45;1.92;;;743.30;1100.80;;;;;;5115646;28;20098;-73
2021/06/27 11:49:16;;;;;;;9.20;2.13;;;743.30;1049.60;;;;;;5115549;28;20584;-73
2021/06/27 11:51:52;;;;;;;6.38;2.50;;;768.00;1075.20;;;;;;5115728;28;20020;-72
2021/06/27 11:54:25;;;;;;;3.25;1.90;;;768.10;1075.20;;;;;;5116086;28;20035;-73
2021/06/27 11:57:02;;;;;;;8.13;2.00;;;768.20;1049.60;;;;;;5115082;28;20092;-73
2021/06/27 11:59:36;;;;;;;21.30;3.80;;;768.20;998.40;;;;;;5097798;28;20042;-73
2021/06/27 12:02:12;;;;;;;20.33;3.00;;;768.20;1024.00;;;;;;5115407;28;20027;-73
2021/06/27 12:04:42;;;;;;;31.80;3.67;;;768.20;1075.20;;;;;;5115627;28;20036;-73
2021/06/27 12:07:33;;;;;;;15.60;2.63;;;768.20;1075.20;;;;;;5115190;28;20031;-73
2021/06/27 12:10:23;;;;;;;3.67;1.50;;;768.20;1075.20;;;;;;5115822;28;20145;-72
2021/06/27 12:12:57;;;;;;;14.98;2.33;;;768.20;998.40;;;;;;5101770;28;20040;-73
2021/06/27 12:15:22;;;;;;;28.77;3.35;;;768.30;1024.00;;;;;;5113656;28;20034;-73
2021/06/27 12:17:59;;;;;;;20.35;2.53;;;768.40;998.40;;;;;;5113459;28;20031;-73